createdAt,value
2019-03-27T00:00:09.220Z,6.28
2019-03-27T00:01:09.218Z,6.28
2019-03-27T00:02:09.154Z,6.26
2019-03-27T00:03:09.157Z,6.22
2019-03-27T00:04:09.140Z,6.20
2019-03-27T00:05:09.097Z,6.20
2019-03-27T00:06:09.114Z,6.20
2019-03-27T00:07:09.084Z,6.19
2019-03-27T00:08:09.067Z,6.17
2019-03-27T00:09:09.037Z,6.17
2019-03-27T00:10:09.022Z,6.17
2019-03-27T00:11:09.043Z,6.16
2019-03-27T00:12:08.975Z,6.17
2019-03-27T00:13:08.969Z,6.15
2019-03-27T00:14:08.935Z,6.16
2019-03-27T00:15:12.990Z,6.15
2019-03-27T00:16:08.946Z,6.16
2019-03-27T00:17:08.893Z,6.15
2019-03-27T00:18:08.878Z,6.13
2019-03-27T00:19:08.853Z,6.13
2019-03-27T00:20:08.835Z,6.12
2019-03-27T00:21:08.880Z,6.09
2019-03-27T00:22:08.802Z,6.10
2019-03-27T00:23:08.775Z,6.10
2019-03-27T00:24:08.755Z,6.09
2019-03-27T00:25:08.757Z,6.10
2019-03-27T00:26:08.744Z,6.10
2019-03-27T00:27:08.853Z,6.12
2019-03-27T00:28:08.673Z,6.13
2019-03-27T00:29:08.665Z,6.13
2019-03-27T00:30:08.651Z,6.13
2019-03-27T00:31:11.740Z,6.12
2019-03-27T00:32:08.611Z,6.10
2019-03-27T00:33:08.623Z,6.07
2019-03-27T00:34:08.585Z,6.07
2019-03-27T00:35:08.561Z,6.09
2019-03-27T00:36:08.556Z,6.10
2019-03-27T00:37:08.517Z,6.10
2019-03-27T00:38:08.593Z,6.12
2019-03-27T00:39:08.485Z,6.09
2019-03-27T00:40:08.471Z,6.09
2019-03-27T00:41:08.444Z,6.09
2019-03-27T00:42:08.442Z,6.10
2019-03-27T00:43:08.451Z,6.09
2019-03-27T00:44:08.374Z,6.09
2019-03-27T00:45:08.360Z,6.09
2019-03-27T00:46:08.354Z,6.10
2019-03-27T00:47:08.356Z,6.10
2019-03-27T00:48:08.358Z,6.10
2019-03-27T00:49:08.300Z,6.10
2019-03-27T00:50:08.259Z,6.13
2019-03-27T00:51:08.258Z,6.13
2019-03-27T00:52:08.244Z,6.15
2019-03-27T00:53:08.218Z,6.13
2019-03-27T00:54:08.236Z,6.09
2019-03-27T00:55:08.169Z,6.10
2019-03-27T00:56:08.174Z,6.10
2019-03-27T00:57:08.156Z,6.12
2019-03-27T00:58:08.128Z,6.12
2019-03-27T00:59:08.111Z,6.13
2019-03-27T01:00:08.098Z,6.12
2019-03-27T01:01:08.078Z,6.10
2019-03-27T01:02:08.064Z,6.12
2019-03-27T01:03:08.043Z,6.12
2019-03-27T01:04:08.154Z,6.13
2019-03-27T01:05:07.981Z,6.10
2019-03-27T01:06:07.982Z,6.12
2019-03-27T01:07:07.971Z,6.13
2019-03-27T01:08:07.949Z,6.12
2019-03-27T01:09:07.907Z,6.12
2019-03-27T01:10:07.954Z,6.10
2019-03-27T01:11:07.894Z,6.09
2019-03-27T01:12:07.869Z,6.09
2019-03-27T01:13:07.831Z,6.09
2019-03-27T01:14:07.978Z,6.06
2019-03-27T01:15:07.800Z,6.05
2019-03-27T01:16:07.792Z,6.05
2019-03-27T01:17:07.779Z,6.07
2019-03-27T01:18:07.772Z,6.05
2019-03-27T01:19:07.744Z,6.02
2019-03-27T01:20:07.750Z,6.02
2019-03-27T01:21:07.726Z,6.01
2019-03-27T01:22:07.688Z,5.99
2019-03-27T01:23:07.666Z,6.01
2019-03-27T01:24:07.644Z,5.99
2019-03-27T01:25:07.646Z,5.97
2019-03-27T01:26:07.606Z,5.95
2019-03-27T01:27:07.666Z,5.94
2019-03-27T01:28:07.568Z,5.92
2019-03-27T01:29:07.543Z,5.91
2019-03-27T01:30:07.592Z,5.91
2019-03-27T01:31:07.524Z,5.91
2019-03-27T01:32:07.495Z,5.91
2019-03-27T01:33:07.485Z,5.91
2019-03-27T01:34:07.475Z,5.91
2019-03-27T01:35:07.436Z,5.90
2019-03-27T01:36:07.456Z,5.92
2019-03-27T01:37:07.411Z,5.88
2019-03-27T01:38:07.392Z,5.90
2019-03-27T01:39:07.374Z,5.91
2019-03-27T01:40:07.348Z,5.92
2019-03-27T01:41:07.377Z,5.92
2019-03-27T01:42:07.316Z,5.90
2019-03-27T01:43:07.304Z,5.90
2019-03-27T01:44:07.282Z,5.90
2019-03-27T01:45:07.238Z,5.88
2019-03-27T01:46:07.250Z,5.88
2019-03-27T01:47:07.235Z,5.90
2019-03-27T01:48:07.202Z,5.91
2019-03-27T01:49:07.182Z,5.91
2019-03-27T01:50:07.157Z,5.91
2019-03-27T01:51:07.172Z,5.90
2019-03-27T01:52:08.127Z,5.88
2019-03-27T01:53:07.105Z,5.87
2019-03-27T01:54:07.093Z,5.87
2019-03-27T01:55:07.051Z,5.88
2019-03-27T01:56:07.039Z,5.84
2019-03-27T01:57:07.059Z,5.87
2019-03-27T01:58:07.017Z,5.87
2019-03-27T01:59:06.997Z,5.84
2019-03-27T02:00:07.051Z,5.87
2019-03-27T02:01:06.955Z,5.87
2019-03-27T02:02:06.959Z,5.88
2019-03-27T02:03:06.923Z,5.91
2019-03-27T02:04:06.931Z,5.91
2019-03-27T02:05:06.860Z,5.91
2019-03-27T02:06:06.867Z,5.91
2019-03-27T02:07:06.844Z,5.91
2019-03-27T02:08:06.822Z,5.88
2019-03-27T02:09:06.812Z,5.88
2019-03-27T02:10:06.793Z,5.88
2019-03-27T02:11:06.835Z,5.90
2019-03-27T02:12:06.745Z,5.88
2019-03-27T02:13:06.713Z,5.87
2019-03-27T02:14:06.704Z,5.87
2019-03-27T02:15:06.676Z,5.84
2019-03-27T02:16:07.549Z,5.81
2019-03-27T02:17:06.656Z,5.81
2019-03-27T02:18:06.633Z,5.80
2019-03-27T02:19:06.626Z,5.80
2019-03-27T02:20:06.579Z,5.79
2019-03-27T02:21:06.647Z,5.80
2019-03-27T02:22:06.652Z,5.79
2019-03-27T02:23:06.556Z,5.77
2019-03-27T02:24:06.517Z,5.76
2019-03-27T02:25:06.494Z,5.73
2019-03-27T02:26:06.487Z,5.72
2019-03-27T02:27:06.479Z,5.72
2019-03-27T02:28:06.429Z,5.72
2019-03-27T02:29:06.443Z,5.70
2019-03-27T02:30:06.427Z,5.69
2019-03-27T02:31:06.401Z,5.67
2019-03-27T02:32:06.355Z,5.65
2019-03-27T02:33:06.356Z,5.64
2019-03-27T02:34:06.329Z,5.59
2019-03-27T02:35:06.342Z,5.59
2019-03-27T02:36:06.380Z,5.55
2019-03-27T02:37:06.259Z,5.52
2019-03-27T02:38:06.266Z,5.54
2019-03-27T02:39:06.243Z,5.54
2019-03-27T02:40:06.260Z,5.54
2019-03-27T02:41:06.213Z,5.54
2019-03-27T02:42:06.184Z,5.54
2019-03-27T02:43:06.164Z,5.52
2019-03-27T02:44:06.168Z,5.55
2019-03-27T02:45:06.129Z,5.54
2019-03-27T02:46:23.318Z,5.54
2019-03-27T02:47:06.074Z,5.54
2019-03-27T02:48:06.085Z,5.54
2019-03-27T02:49:06.053Z,5.54
2019-03-27T02:50:06.030Z,5.54
2019-03-27T02:51:06.004Z,5.52
2019-03-27T02:52:06.321Z,5.51
2019-03-27T02:53:05.990Z,5.51
2019-03-27T02:54:05.958Z,5.51
2019-03-27T02:55:05.935Z,5.51
2019-03-27T02:56:06.058Z,5.52
2019-03-27T02:57:05.941Z,5.49
2019-03-27T02:58:05.881Z,5.47
2019-03-27T02:59:05.870Z,5.49
2019-03-27T03:00:05.860Z,5.49
2019-03-27T03:01:05.826Z,5.49
2019-03-27T03:02:05.797Z,5.47
2019-03-27T03:03:05.801Z,5.47
2019-03-27T03:04:05.771Z,5.47
2019-03-27T03:05:05.744Z,5.49
2019-03-27T03:06:05.745Z,5.49
2019-03-27T03:07:05.704Z,5.49
2019-03-27T03:08:05.746Z,5.51
2019-03-27T03:09:05.670Z,5.52
2019-03-27T03:10:05.650Z,5.49
2019-03-27T03:11:05.617Z,5.51
2019-03-27T03:12:05.613Z,5.51
2019-03-27T03:13:05.578Z,5.51
2019-03-27T03:14:05.687Z,5.51
2019-03-27T03:15:05.557Z,5.51
2019-03-27T03:16:05.550Z,5.52
2019-03-27T03:17:05.525Z,5.52
2019-03-27T03:18:05.530Z,5.55
2019-03-27T03:19:05.495Z,5.54
2019-03-27T03:20:05.466Z,5.54
2019-03-27T03:21:05.439Z,5.56
2019-03-27T03:22:05.522Z,5.56
2019-03-27T03:23:05.416Z,5.55
2019-03-27T03:24:05.384Z,5.55
2019-03-27T03:25:05.401Z,5.56
2019-03-27T03:26:05.341Z,5.56
2019-03-27T03:27:05.327Z,5.56
2019-03-27T03:28:05.298Z,5.55
2019-03-27T03:29:05.309Z,5.55
2019-03-27T03:30:05.252Z,5.55
2019-03-27T03:31:05.243Z,5.54
2019-03-27T03:32:05.240Z,5.52
2019-03-27T03:33:05.247Z,5.54
2019-03-27T03:34:05.224Z,5.54
2019-03-27T03:35:05.257Z,5.54
2019-03-27T03:36:05.150Z,5.54
2019-03-27T03:37:05.122Z,5.54
2019-03-27T03:38:05.119Z,5.52
2019-03-27T03:39:05.081Z,5.49
2019-03-27T03:40:05.088Z,5.49
2019-03-27T03:41:05.093Z,5.49
2019-03-27T03:42:05.046Z,5.47
2019-03-27T03:43:05.007Z,5.46
2019-03-27T03:44:05.018Z,5.47
2019-03-27T03:45:04.996Z,5.47
2019-03-27T03:46:04.972Z,5.47
2019-03-27T03:47:04.945Z,5.46
2019-03-27T03:48:04.924Z,5.44
2019-03-27T03:49:04.885Z,5.46
2019-03-27T03:50:04.930Z,5.46
2019-03-27T03:51:04.866Z,5.44
2019-03-27T03:52:04.863Z,5.44
2019-03-27T03:53:04.870Z,5.44
2019-03-27T03:54:04.815Z,5.43
2019-03-27T03:55:04.773Z,5.43
2019-03-27T03:56:04.803Z,5.43
2019-03-27T03:57:04.779Z,5.40
2019-03-27T03:58:04.878Z,5.40
2019-03-27T03:59:04.713Z,5.38
2019-03-27T04:00:04.687Z,5.37
2019-03-27T04:01:04.673Z,5.38
2019-03-27T04:02:04.679Z,5.38
2019-03-27T04:03:04.621Z,5.37
2019-03-27T04:04:04.647Z,5.37
2019-03-27T04:05:04.589Z,5.36
2019-03-27T04:06:04.591Z,5.34
2019-03-27T04:07:04.555Z,5.34
2019-03-27T04:08:04.528Z,5.33
2019-03-27T04:09:04.543Z,5.31
2019-03-27T04:10:04.515Z,5.29
2019-03-27T04:11:04.506Z,5.31
2019-03-27T04:12:04.468Z,5.31
2019-03-27T04:13:04.457Z,5.31
2019-03-27T04:14:04.428Z,5.31
2019-03-27T04:15:04.433Z,5.31
2019-03-27T04:16:04.429Z,5.29
2019-03-27T04:17:16.998Z,5.29
2019-03-27T04:18:04.349Z,5.29
2019-03-27T04:19:04.330Z,5.29
2019-03-27T04:20:04.309Z,5.28
2019-03-27T04:21:04.332Z,5.28
2019-03-27T04:22:04.276Z,5.31
2019-03-27T04:23:04.259Z,5.29
2019-03-27T04:24:04.257Z,5.31
2019-03-27T04:25:04.236Z,5.33
2019-03-27T04:26:10.206Z,5.36
2019-03-27T04:27:04.195Z,5.36
2019-03-27T04:28:04.175Z,5.37
2019-03-27T04:29:04.144Z,5.37
2019-03-27T04:30:04.106Z,5.37
2019-03-27T04:31:04.105Z,5.40
2019-03-27T04:32:04.118Z,5.38
2019-03-27T04:33:04.055Z,5.40
2019-03-27T04:34:04.032Z,5.40
2019-03-27T04:35:04.033Z,5.40
2019-03-27T04:36:04.022Z,5.41
2019-03-27T04:37:04.005Z,5.41
2019-03-27T04:38:04.081Z,5.41
2019-03-27T04:39:03.974Z,5.40
2019-03-27T04:40:03.965Z,5.40
2019-03-27T04:41:03.930Z,5.40
2019-03-27T04:42:04.049Z,5.41
2019-03-27T04:43:03.867Z,5.40
2019-03-27T04:44:03.868Z,5.40
2019-03-27T04:45:03.828Z,5.41
2019-03-27T04:46:03.819Z,5.43
2019-03-27T04:47:03.804Z,5.46
2019-03-27T04:48:03.790Z,5.47
2019-03-27T04:49:07.492Z,5.46
2019-03-27T04:50:03.744Z,5.46
2019-03-27T04:51:03.743Z,5.43
2019-03-27T04:52:03.707Z,5.41
2019-03-27T04:53:03.726Z,5.41
2019-03-27T04:54:03.680Z,5.41
2019-03-27T04:55:03.653Z,5.43
2019-03-27T04:56:03.629Z,5.43
2019-03-27T04:57:03.659Z,5.44
2019-03-27T04:58:03.597Z,5.46
2019-03-27T04:59:03.710Z,5.44
2019-03-27T05:00:03.652Z,5.41
2019-03-27T05:01:03.543Z,5.40
2019-03-27T05:02:06.503Z,5.38
2019-03-27T05:03:03.509Z,5.37
2019-03-27T05:04:03.483Z,5.37
2019-03-27T05:05:03.480Z,5.36
2019-03-27T05:06:03.454Z,5.37
2019-03-27T05:07:03.423Z,5.37
2019-03-27T05:08:03.413Z,5.38
2019-03-27T05:09:03.391Z,5.38
2019-03-27T05:10:03.518Z,5.38
2019-03-27T05:11:03.353Z,5.38
2019-03-27T05:12:03.310Z,5.37
2019-03-27T05:13:03.315Z,5.37
2019-03-27T05:14:03.323Z,5.36
2019-03-27T05:15:03.268Z,5.34
2019-03-27T05:16:03.295Z,5.36
2019-03-27T05:17:03.249Z,5.34
2019-03-27T05:18:03.232Z,5.33
2019-03-27T05:19:03.187Z,5.33
2019-03-27T05:20:03.426Z,5.33
2019-03-27T05:21:03.234Z,5.31
2019-03-27T05:22:03.150Z,5.31
2019-03-27T05:23:03.138Z,5.29
2019-03-27T05:24:03.100Z,5.26
2019-03-27T05:25:03.070Z,5.28
2019-03-27T05:26:03.051Z,5.28
2019-03-27T05:27:03.089Z,5.29
2019-03-27T05:28:03.012Z,5.33
2019-03-27T05:29:03.009Z,5.34
2019-03-27T05:30:02.998Z,5.36
2019-03-27T05:31:02.986Z,5.36
2019-03-27T05:32:02.965Z,5.34
2019-03-27T05:33:03.088Z,5.33
2019-03-27T05:34:02.899Z,5.33
2019-03-27T05:35:02.879Z,5.33
2019-03-27T05:36:02.874Z,5.36
2019-03-27T05:37:02.848Z,5.36
2019-03-27T05:38:02.873Z,5.36
2019-03-27T05:39:02.832Z,5.34
2019-03-27T05:40:02.803Z,5.37
2019-03-27T05:41:02.789Z,5.38
2019-03-27T05:42:02.759Z,5.38
2019-03-27T05:43:02.737Z,5.38
2019-03-27T05:44:02.764Z,5.40
2019-03-27T05:45:02.709Z,5.43
2019-03-27T05:46:02.665Z,5.43
2019-03-27T05:47:02.662Z,5.43
2019-03-27T05:48:02.635Z,5.43
2019-03-27T05:49:02.641Z,5.46
2019-03-27T05:50:02.738Z,5.46
2019-03-27T05:51:02.607Z,5.44
2019-03-27T05:52:02.554Z,5.44
2019-03-27T05:53:02.564Z,5.43
2019-03-27T05:54:02.538Z,5.43
2019-03-27T05:55:02.510Z,5.41
2019-03-27T05:56:02.525Z,5.40
2019-03-27T05:57:02.470Z,5.41
2019-03-27T05:58:02.442Z,5.40
2019-03-27T05:59:02.469Z,5.38
2019-03-27T06:00:02.423Z,5.40
2019-03-27T06:01:02.407Z,5.40
2019-03-27T06:02:02.381Z,5.40
2019-03-27T06:03:02.343Z,5.41
2019-03-27T06:04:02.347Z,5.44
2019-03-27T06:05:02.326Z,5.44
2019-03-27T06:06:02.361Z,5.46
2019-03-27T06:07:02.347Z,5.47
2019-03-27T06:08:02.268Z,5.47
2019-03-27T06:09:02.226Z,5.47
2019-03-27T06:10:02.216Z,5.51
2019-03-27T06:11:02.213Z,5.52
2019-03-27T06:12:02.202Z,5.51
2019-03-27T06:13:02.165Z,5.54
2019-03-27T06:14:02.153Z,5.56
2019-03-27T06:15:02.144Z,5.58
2019-03-27T06:16:02.249Z,5.59
2019-03-27T06:17:02.097Z,5.59
2019-03-27T06:18:12.460Z,5.56
2019-03-27T06:19:02.052Z,5.58
2019-03-27T06:20:02.038Z,5.56
2019-03-27T06:21:02.023Z,5.56
2019-03-27T06:22:02.003Z,5.58
2019-03-27T06:23:02.011Z,5.64
2019-03-27T06:24:01.985Z,5.62
2019-03-27T06:25:01.947Z,5.65
2019-03-27T06:26:01.959Z,5.64
2019-03-27T06:27:01.904Z,5.65
2019-03-27T06:28:01.882Z,5.69
2019-03-27T06:29:01.874Z,5.70
2019-03-27T06:30:01.859Z,5.70
2019-03-27T06:31:01.898Z,5.72
2019-03-27T06:32:01.803Z,5.74
2019-03-27T06:33:01.789Z,5.76
2019-03-27T06:34:01.801Z,5.76
2019-03-27T06:35:01.759Z,5.77
2019-03-27T06:36:01.744Z,5.79
2019-03-27T06:37:01.699Z,5.80
2019-03-27T06:38:01.730Z,5.80
2019-03-27T06:39:01.696Z,5.77
2019-03-27T06:40:01.658Z,5.79
2019-03-27T06:41:01.625Z,5.80
2019-03-27T06:42:01.630Z,5.80
2019-03-27T06:43:01.605Z,5.81
2019-03-27T06:44:01.616Z,5.80
2019-03-27T06:45:01.578Z,5.80
2019-03-27T06:46:01.534Z,5.83
2019-03-27T06:47:01.535Z,5.84
2019-03-27T06:48:01.515Z,5.84
2019-03-27T06:49:01.521Z,5.84
2019-03-27T06:50:01.476Z,5.90
2019-03-27T06:51:01.465Z,5.90
2019-03-27T06:52:01.418Z,5.91
2019-03-27T06:53:01.424Z,5.91
2019-03-27T06:54:01.524Z,5.91
2019-03-27T06:55:01.381Z,5.92
2019-03-27T06:56:01.356Z,5.95
2019-03-27T06:57:01.418Z,5.98
2019-03-27T06:58:01.320Z,6.01
2019-03-27T06:59:01.295Z,6.06
2019-03-27T07:00:01.306Z,5.98
2019-03-27T07:01:01.282Z,5.98
2019-03-27T07:02:01.260Z,5.99
2019-03-27T07:03:01.241Z,6.01
2019-03-27T07:04:10.458Z,6.02
2019-03-27T07:05:01.193Z,6.05
2019-03-27T07:06:01.183Z,6.06
2019-03-27T07:07:01.171Z,6.07
2019-03-27T07:08:01.136Z,6.06
2019-03-27T07:09:01.126Z,6.06
2019-03-27T07:10:01.129Z,6.06
2019-03-27T07:11:01.073Z,6.05
2019-03-27T07:12:01.087Z,6.05
2019-03-27T07:13:01.045Z,6.02
2019-03-27T07:14:01.033Z,6.06
2019-03-27T07:15:01.151Z,6.09
2019-03-27T07:16:00.993Z,6.10
2019-03-27T07:17:00.982Z,6.10
2019-03-27T07:18:00.952Z,6.15
2019-03-27T07:19:00.977Z,6.17
2019-03-27T07:20:00.906Z,6.20
2019-03-27T07:21:00.917Z,6.32
2019-03-27T07:22:00.892Z,6.32
2019-03-27T07:23:00.878Z,6.32
2019-03-27T07:24:00.887Z,6.31
2019-03-27T07:25:00.931Z,6.29
2019-03-27T07:26:00.838Z,6.31
2019-03-27T07:27:00.808Z,6.29
2019-03-27T07:28:00.800Z,6.31
2019-03-27T07:29:00.736Z,6.28
2019-03-27T07:30:00.802Z,6.31
2019-03-27T07:31:00.738Z,6.32
2019-03-27T07:32:00.681Z,6.41
2019-03-27T07:33:00.715Z,6.47
2019-03-27T07:34:00.668Z,6.54
2019-03-27T07:35:00.647Z,6.62
2019-03-27T07:36:00.632Z,6.68
2019-03-27T07:37:00.593Z,6.70
2019-03-27T07:38:00.647Z,6.64
2019-03-27T07:39:10.523Z,6.62
2019-03-27T07:40:00.559Z,6.56
2019-03-27T07:41:00.530Z,6.56
2019-03-27T07:42:00.513Z,6.62
2019-03-27T07:43:00.541Z,6.62
2019-03-27T07:44:00.488Z,6.62
2019-03-27T07:45:00.508Z,6.65
2019-03-27T07:46:00.442Z,6.70
2019-03-27T07:47:00.439Z,6.70
2019-03-27T07:48:00.423Z,6.67
2019-03-27T07:49:00.433Z,6.62
2019-03-27T07:50:00.455Z,6.60
2019-03-27T07:51:00.389Z,6.64
2019-03-27T07:52:00.338Z,6.62
2019-03-27T07:53:00.323Z,6.56
2019-03-27T07:54:00.289Z,6.54
2019-03-27T07:55:00.295Z,6.62
2019-03-27T07:56:00.293Z,6.72
2019-03-27T07:57:00.246Z,6.85
2019-03-27T07:58:00.236Z,6.96
2019-03-27T07:59:00.224Z,7.00
2019-03-27T08:00:00.361Z,6.95
2019-03-27T08:01:00.233Z,6.92
2019-03-27T08:02:00.166Z,6.89
2019-03-27T08:03:00.219Z,6.92
2019-03-27T08:04:00.109Z,6.93
2019-03-27T08:05:00.162Z,7.00
2019-03-27T08:06:00.125Z,6.97
2019-03-27T08:07:00.069Z,7.00
2019-03-27T08:08:00.100Z,6.97
2019-03-27T08:09:00.033Z,7.00
2019-03-27T08:10:00.031Z,6.97
2019-03-27T08:11:00.004Z,7.00
2019-03-27T08:11:59.984Z,7.01
2019-03-27T08:12:59.974Z,7.01
2019-03-27T08:13:59.964Z,7.03
2019-03-27T08:14:59.929Z,7.11
2019-03-27T08:15:59.902Z,7.29
2019-03-27T08:16:59.985Z,7.43
2019-03-27T08:17:59.906Z,7.56
2019-03-27T08:19:07.303Z,7.53
2019-03-27T08:19:59.842Z,7.51
2019-03-27T08:20:59.830Z,7.48
2019-03-27T08:21:59.820Z,7.48
2019-03-27T08:22:59.859Z,7.47
2019-03-27T08:23:59.826Z,7.48
2019-03-27T08:24:59.743Z,7.46
2019-03-27T08:25:59.743Z,7.41
2019-03-27T08:26:59.731Z,7.41
2019-03-27T08:27:59.693Z,7.40
2019-03-27T08:28:59.729Z,7.36
2019-03-27T08:29:59.671Z,7.36
2019-03-27T08:30:59.698Z,7.37
2019-03-27T08:31:59.640Z,7.39
2019-03-27T08:32:59.617Z,7.40
2019-03-27T08:33:59.584Z,7.40
2019-03-27T08:34:59.579Z,7.41
2019-03-27T08:35:59.622Z,7.46
2019-03-27T08:36:59.557Z,7.46
2019-03-27T08:37:59.533Z,7.47
2019-03-27T08:38:59.512Z,7.46
2019-03-27T08:39:59.509Z,7.48
2019-03-27T08:40:59.468Z,7.51
2019-03-27T08:41:59.471Z,7.61
2019-03-27T08:42:59.452Z,7.64
2019-03-27T08:43:59.417Z,7.61
2019-03-27T08:44:59.439Z,7.67
2019-03-27T08:45:59.383Z,7.75
2019-03-27T08:46:59.417Z,7.80
2019-03-27T08:47:59.370Z,7.78
2019-03-27T08:48:59.398Z,7.78
2019-03-27T08:49:59.340Z,7.78
2019-03-27T08:50:59.296Z,7.81
2019-03-27T08:51:59.302Z,7.83
2019-03-27T08:52:59.283Z,7.88
2019-03-27T08:53:59.317Z,7.95
2019-03-27T08:54:59.248Z,8.01
2019-03-27T08:55:59.237Z,8.03
2019-03-27T08:56:59.212Z,8.06
2019-03-27T08:57:59.205Z,8.06
2019-03-27T08:58:59.176Z,8.08
2019-03-27T08:59:59.164Z,8.11
2019-03-27T09:00:59.153Z,8.21
2019-03-27T09:01:59.130Z,8.28
2019-03-27T09:02:59.122Z,8.32
2019-03-27T09:03:59.123Z,8.38
2019-03-27T09:04:59.067Z,8.45
2019-03-27T09:05:59.048Z,8.44
2019-03-27T09:06:59.047Z,8.41
2019-03-27T09:07:59.057Z,8.36
2019-03-27T09:08:59.027Z,8.38
2019-03-27T09:09:59.051Z,8.42
2019-03-27T09:10:58.967Z,8.45
2019-03-27T09:11:58.967Z,8.49
2019-03-27T09:12:58.951Z,8.50
2019-03-27T09:13:58.971Z,8.50
2019-03-27T09:14:58.927Z,8.52
2019-03-27T09:15:58.943Z,8.53
2019-03-27T09:16:58.893Z,8.56
2019-03-27T09:17:58.873Z,8.63
2019-03-27T09:18:58.855Z,8.64
2019-03-27T09:19:58.835Z,8.66
2019-03-27T09:20:58.871Z,8.78
2019-03-27T09:21:58.812Z,8.87
2019-03-27T09:22:58.812Z,8.99
2019-03-27T09:23:58.774Z,8.99
2019-03-27T09:24:58.791Z,9.09
2019-03-27T09:25:58.737Z,9.13
2019-03-27T09:26:58.737Z,9.18
2019-03-27T09:27:58.724Z,9.21
2019-03-27T09:28:58.681Z,9.27
2019-03-27T09:29:58.691Z,9.21
2019-03-27T09:30:58.692Z,9.12
2019-03-27T09:31:58.650Z,9.05
2019-03-27T09:32:58.647Z,9.09
2019-03-27T09:33:58.616Z,9.12
2019-03-27T09:34:58.594Z,9.13
2019-03-27T09:35:58.703Z,9.19
2019-03-27T09:36:58.630Z,9.15
2019-03-27T09:37:58.565Z,9.03
2019-03-27T09:38:58.541Z,8.90
2019-03-27T09:39:58.515Z,8.78
2019-03-27T09:40:58.511Z,8.77
2019-03-27T09:41:58.567Z,8.79
2019-03-27T09:42:58.467Z,8.82
2019-03-27T09:43:58.460Z,8.92
2019-03-27T09:44:58.462Z,8.99
2019-03-27T09:45:58.451Z,9.02
2019-03-27T09:46:58.403Z,9.00
2019-03-27T09:47:58.450Z,9.02
2019-03-27T09:48:58.390Z,9.08
2019-03-27T09:49:58.387Z,9.02
2019-03-27T09:50:58.349Z,8.97
2019-03-27T09:51:58.490Z,8.96
2019-03-27T09:52:58.314Z,8.99
2019-03-27T09:53:58.308Z,8.99
2019-03-27T09:54:58.307Z,8.97
2019-03-27T09:55:58.278Z,9.02
2019-03-27T09:56:58.304Z,8.97
2019-03-27T09:57:58.265Z,8.95
2019-03-27T09:58:58.229Z,8.99
2019-03-27T09:59:58.213Z,9.08
2019-03-27T10:00:58.206Z,9.19
2019-03-27T10:01:58.176Z,9.33
2019-03-27T10:02:58.194Z,9.39
2019-03-27T10:03:58.166Z,9.44
2019-03-27T10:04:58.148Z,9.47
2019-03-27T10:05:58.128Z,9.48
2019-03-27T10:06:58.096Z,9.55
2019-03-27T10:07:58.090Z,9.58
2019-03-27T10:08:58.079Z,9.63
2019-03-27T10:09:58.054Z,9.63
2019-03-27T10:10:58.035Z,9.58
2019-03-27T10:11:58.013Z,9.54
2019-03-27T10:12:58.017Z,9.51
2019-03-27T10:13:58.120Z,9.55
2019-03-27T10:14:57.961Z,9.51
2019-03-27T10:15:57.954Z,9.51
2019-03-27T10:16:57.947Z,9.45
2019-03-27T10:17:57.940Z,9.42
2019-03-27T10:18:57.911Z,9.45
2019-03-27T10:20:03.770Z,9.49
2019-03-27T10:20:57.881Z,9.62
2019-03-27T10:21:57.882Z,9.76
2019-03-27T10:22:57.854Z,9.91
2019-03-27T10:23:57.842Z,9.95
2019-03-27T10:24:57.868Z,9.94
2019-03-27T10:25:57.811Z,10.02
2019-03-27T10:26:57.787Z,9.92
2019-03-27T10:27:57.757Z,9.88
2019-03-27T10:28:57.774Z,9.95
2019-03-27T10:29:57.784Z,10.03
2019-03-27T10:30:57.716Z,9.99
2019-03-27T10:31:57.724Z,9.88
2019-03-27T10:32:57.700Z,9.84
2019-03-27T10:33:57.669Z,9.91
2019-03-27T10:34:57.703Z,10.09
2019-03-27T10:35:57.653Z,10.20
2019-03-27T10:36:57.640Z,10.25
2019-03-27T10:37:57.632Z,10.41
2019-03-27T10:38:57.634Z,10.51
2019-03-27T10:39:57.629Z,10.86
2019-03-27T10:40:57.594Z,11.02
2019-03-27T10:41:57.586Z,11.01
2019-03-27T10:42:57.546Z,10.98
2019-03-27T10:43:57.553Z,11.05
2019-03-27T10:44:57.590Z,11.12
2019-03-27T10:45:57.497Z,11.25
2019-03-27T10:46:57.504Z,11.19
2019-03-27T10:47:57.480Z,11.07
2019-03-27T10:48:57.474Z,11.01
2019-03-27T10:49:57.442Z,10.94
2019-03-27T10:50:57.470Z,10.84
2019-03-27T10:51:57.425Z,10.68
2019-03-27T10:52:57.414Z,10.76
2019-03-27T10:53:57.413Z,10.94
2019-03-27T10:54:57.387Z,11.02
2019-03-27T10:55:57.366Z,11.12
2019-03-27T10:56:57.373Z,10.98
2019-03-27T10:57:57.353Z,10.84
2019-03-27T10:58:57.335Z,10.76
2019-03-27T10:59:57.329Z,10.76
2019-03-27T11:00:57.318Z,10.79
2019-03-27T11:01:57.311Z,10.80
2019-03-27T11:02:57.391Z,10.90
2019-03-27T11:03:57.420Z,11.01
2019-03-27T11:04:57.261Z,11.02
2019-03-27T11:05:57.249Z,11.10
2019-03-27T11:06:57.228Z,10.92
2019-03-27T11:07:57.208Z,10.75
2019-03-27T11:08:57.189Z,10.59
2019-03-27T11:09:57.193Z,10.51
2019-03-27T11:10:57.181Z,10.46
2019-03-27T11:11:57.179Z,10.42
2019-03-27T11:12:57.166Z,10.34
2019-03-27T11:13:57.130Z,10.23
2019-03-27T11:14:57.118Z,10.07
2019-03-27T11:15:57.099Z,9.99
2019-03-27T11:16:57.133Z,9.92
2019-03-27T11:17:57.091Z,9.97
2019-03-27T11:18:57.081Z,10.02
2019-03-27T11:19:57.059Z,10.12
2019-03-27T11:20:57.055Z,10.15
2019-03-27T11:21:57.038Z,10.24
2019-03-27T11:22:57.002Z,10.41
2019-03-27T11:23:57.061Z,10.57
2019-03-27T11:24:56.982Z,10.65
2019-03-27T11:25:56.946Z,10.79
2019-03-27T11:26:56.933Z,10.90
2019-03-27T11:27:56.921Z,10.89
2019-03-27T11:28:56.918Z,10.80
2019-03-27T11:29:56.913Z,10.76
2019-03-27T11:30:57.022Z,10.75
2019-03-27T11:31:56.893Z,10.72
2019-03-27T11:32:56.859Z,10.71
2019-03-27T11:33:56.850Z,10.76
2019-03-27T11:34:57.061Z,10.76
2019-03-27T11:35:56.828Z,10.79
2019-03-27T11:36:56.820Z,10.82
2019-03-27T11:37:56.798Z,10.86
2019-03-27T11:38:56.792Z,10.87
2019-03-27T11:39:56.752Z,10.90
2019-03-27T11:40:56.747Z,10.90
2019-03-27T11:41:56.737Z,10.80
2019-03-27T11:42:56.725Z,10.72
2019-03-27T11:43:56.694Z,10.72
2019-03-27T11:44:56.684Z,10.76
2019-03-27T11:45:56.691Z,10.84
2019-03-27T11:46:56.654Z,10.92
2019-03-27T11:47:56.658Z,10.87
2019-03-27T11:48:56.618Z,10.86
2019-03-27T11:49:56.760Z,10.80
2019-03-27T11:50:56.606Z,10.79
2019-03-27T11:51:56.608Z,10.72
2019-03-27T11:52:56.607Z,10.75
2019-03-27T11:53:56.555Z,10.77
2019-03-27T11:54:56.563Z,10.84
2019-03-27T11:55:56.538Z,11.00
2019-03-27T11:56:56.539Z,11.04
2019-03-27T11:57:56.604Z,11.16
2019-03-27T11:58:59.539Z,11.22
2019-03-27T11:59:56.612Z,11.23
2019-03-27T12:00:56.469Z,11.23
2019-03-27T12:01:57.169Z,11.19
2019-03-27T12:02:56.444Z,11.19
2019-03-27T12:03:56.460Z,11.27
2019-03-27T12:04:56.412Z,11.35
2019-03-27T12:05:56.400Z,11.44
2019-03-27T12:06:56.421Z,11.59
2019-03-27T12:07:56.363Z,11.70
2019-03-27T12:08:56.372Z,11.70
2019-03-27T12:09:56.338Z,11.83
2019-03-27T12:10:56.373Z,11.91
2019-03-27T12:11:56.355Z,11.80
2019-03-27T12:12:56.308Z,11.62
2019-03-27T12:13:56.284Z,11.51
2019-03-27T12:14:56.282Z,11.41
2019-03-27T12:15:56.256Z,11.44
2019-03-27T12:16:56.305Z,11.45
2019-03-27T12:17:56.813Z,11.44
2019-03-27T12:18:56.247Z,11.43
2019-03-27T12:19:56.238Z,11.35
2019-03-27T12:20:59.498Z,11.25
2019-03-27T12:21:56.277Z,11.12
2019-03-27T12:22:57.926Z,11.00
2019-03-27T12:23:56.154Z,10.94
2019-03-27T12:24:56.150Z,10.94
2019-03-27T12:25:56.141Z,10.90
2019-03-27T12:26:56.131Z,10.89
2019-03-27T12:27:56.144Z,10.86
2019-03-27T12:28:56.920Z,10.80
2019-03-27T12:29:56.127Z,10.77
2019-03-27T12:30:56.090Z,10.82
2019-03-27T12:31:56.047Z,10.87
2019-03-27T12:32:58.138Z,10.94
2019-03-27T12:33:56.056Z,10.95
2019-03-27T12:34:56.148Z,10.92
2019-03-27T12:35:56.005Z,10.92
2019-03-27T12:36:55.996Z,10.95
2019-03-27T12:37:56.120Z,11.07
2019-03-27T12:38:55.959Z,11.15
2019-03-27T12:39:55.961Z,11.18
2019-03-27T12:40:56.000Z,11.25
2019-03-27T12:41:59.046Z,11.43
2019-03-27T12:42:55.922Z,11.51
2019-03-27T12:43:56.236Z,11.53
2019-03-27T12:44:55.939Z,11.56
2019-03-27T12:45:55.873Z,11.60
2019-03-27T12:46:55.850Z,11.59
2019-03-27T12:47:55.882Z,11.53
2019-03-27T12:48:55.854Z,11.43
2019-03-27T12:49:55.887Z,11.44
2019-03-27T12:50:55.810Z,11.53
2019-03-27T12:51:55.860Z,11.58
2019-03-27T12:52:55.795Z,11.56
2019-03-27T12:53:55.741Z,11.53
2019-03-27T12:54:56.501Z,11.43
2019-03-27T12:55:57.028Z,11.33
2019-03-27T12:56:56.396Z,11.23
2019-03-27T12:57:55.808Z,11.23
2019-03-27T12:58:55.727Z,11.30
2019-03-27T12:59:55.678Z,11.37
2019-03-27T13:00:55.672Z,11.43
2019-03-27T13:01:55.651Z,11.38
2019-03-27T13:02:55.626Z,11.38
2019-03-27T13:03:56.354Z,11.34
2019-03-27T13:04:55.604Z,11.30
2019-03-27T13:05:55.602Z,11.31
2019-03-27T13:06:55.596Z,11.25
2019-03-27T13:07:55.581Z,11.27
2019-03-27T13:08:55.553Z,11.27
2019-03-27T13:09:55.581Z,11.22
2019-03-27T13:10:55.531Z,11.19
2019-03-27T13:11:55.551Z,11.10
2019-03-27T13:12:55.519Z,11.07